createdAt,value
2018-10-06T00:00:35.015Z,7.03
2018-10-06T00:03:03.519Z,7.43
2018-10-06T00:05:31.923Z,7.77
2018-10-06T00:08:00.422Z,7.07
2018-10-06T00:10:28.953Z,6.83
2018-10-06T00:12:57.418Z,6.70
2018-10-06T00:15:25.813Z,6.90
2018-10-06T00:17:54.299Z,6.53
2018-10-06T00:20:22.705Z,7.20
2018-10-06T00:22:51.132Z,6.80
2018-10-06T00:25:19.502Z,8.63
2018-10-06T00:27:47.946Z,6.57
2018-10-06T00:30:16.349Z,6.97
2018-10-06T00:32:44.782Z,7.37
2018-10-06T00:35:13.205Z,6.70
2018-10-06T00:37:41.723Z,6.77
2018-10-06T00:40:10.129Z,7.00
2018-10-06T00:42:38.558Z,7.23
2018-10-06T00:45:06.978Z,6.87
2018-10-06T00:47:35.410Z,7.40
2018-10-06T00:50:03.948Z,7.00
2018-10-06T00:52:32.449Z,6.30
2018-10-06T00:55:00.882Z,6.70
2018-10-06T00:57:29.368Z,7.07
2018-10-06T00:59:57.819Z,6.27
2018-10-06T01:02:26.299Z,13.70
2018-10-06T01:04:54.697Z,6.77
2018-10-06T01:07:23.157Z,8.50
2018-10-06T01:09:51.569Z,6.67
2018-10-06T01:12:20.008Z,7.20
2018-10-06T01:14:48.573Z,6.73
2018-10-06T01:17:17.047Z,7.78
2018-10-06T01:19:45.437Z,6.47
2018-10-06T01:22:13.903Z,8.53
2018-10-06T01:24:42.329Z,5.87
2018-10-06T01:27:10.853Z,9.17
2018-10-06T01:29:39.266Z,6.33
2018-10-06T01:32:07.742Z,6.90
2018-10-06T01:34:36.106Z,6.63
2018-10-06T01:37:04.650Z,8.93
2018-10-06T01:39:33.155Z,6.40
2018-10-06T01:42:02.048Z,9.93
2018-10-06T01:44:30.482Z,6.57
2018-10-06T01:46:59.088Z,11.27
2018-10-06T01:49:27.565Z,6.93
2018-10-06T01:51:56.028Z,7.30
2018-10-06T01:54:24.513Z,8.10
2018-10-06T01:56:52.913Z,6.73
2018-10-06T01:59:21.398Z,7.27
2018-10-06T02:01:49.865Z,6.20
2018-10-06T02:04:21.978Z,7.30
2018-10-06T02:06:50.429Z,9.67
2018-10-06T02:09:19.009Z,6.27
2018-10-06T02:11:47.435Z,7.53
2018-10-06T02:14:15.897Z,7.87
2018-10-06T02:16:44.331Z,6.57
2018-10-06T02:19:12.820Z,6.20
2018-10-06T02:21:41.353Z,6.83
2018-10-06T02:24:09.800Z,6.83
2018-10-06T02:26:38.277Z,7.47
2018-10-06T02:29:06.761Z,6.90
2018-10-06T02:31:35.171Z,7.17
2018-10-06T02:34:03.716Z,8.10
2018-10-06T02:36:32.197Z,6.63
2018-10-06T02:39:00.788Z,6.30
2018-10-06T02:41:29.256Z,7.20
2018-10-06T02:43:57.795Z,6.87
2018-10-06T02:46:26.213Z,7.17
2018-10-06T02:48:54.670Z,6.60
2018-10-06T02:51:23.185Z,5.83
2018-10-06T02:53:51.647Z,7.10
2018-10-06T02:56:20.068Z,9.17
2018-10-06T02:58:48.520Z,7.17
2018-10-06T03:01:16.949Z,6.95
2018-10-06T03:03:45.453Z,6.70
2018-10-06T03:06:13.940Z,6.28
2018-10-06T03:08:42.431Z,8.60
2018-10-06T03:11:10.909Z,7.35
2018-10-06T03:13:39.358Z,5.83
2018-10-06T03:16:08.189Z,7.28
2018-10-06T03:18:36.665Z,6.40
2018-10-06T03:21:05.195Z,6.83
2018-10-06T03:23:33.683Z,8.80
2018-10-06T03:26:02.173Z,8.73
2018-10-06T03:28:30.713Z,8.55
2018-10-06T03:30:59.177Z,6.60
2018-10-06T03:33:28.547Z,7.20
2018-10-06T03:35:57.007Z,6.60
2018-10-06T03:38:25.496Z,7.23
2018-10-06T03:40:54.015Z,6.70
2018-10-06T03:43:22.434Z,6.63
2018-10-06T03:45:50.932Z,6.70
2018-10-06T03:48:19.369Z,6.27
2018-10-06T03:50:47.850Z,7.27
2018-10-06T03:53:16.298Z,6.65
2018-10-06T03:55:44.776Z,7.47
2018-10-06T03:58:13.272Z,7.67
2018-10-06T04:00:41.773Z,6.57
2018-10-06T04:03:10.284Z,7.35
2018-10-06T04:05:38.744Z,9.63
2018-10-06T04:08:07.154Z,8.00
2018-10-06T04:10:35.664Z,7.17
2018-10-06T04:13:04.095Z,7.10
2018-10-06T04:15:32.636Z,8.73
2018-10-06T04:18:01.114Z,7.12
2018-10-06T04:20:29.723Z,7.00
2018-10-06T04:22:58.212Z,8.30
2018-10-06T04:25:26.681Z,6.78
2018-10-06T04:27:55.176Z,10.08
2018-10-06T04:30:23.717Z,10.65
2018-10-06T04:32:52.108Z,9.18
2018-10-06T04:35:20.588Z,7.97
2018-10-06T04:37:49.052Z,12.98
2018-10-06T04:40:17.623Z,8.50
2018-10-06T04:42:46.062Z,8.40
2018-10-06T04:45:14.614Z,8.13
2018-10-06T04:47:43.027Z,8.60
2018-10-06T04:50:11.501Z,8.13
2018-10-06T04:52:39.933Z,7.72
2018-10-06T04:55:08.444Z,10.53
2018-10-06T04:57:36.901Z,7.78
2018-10-06T05:00:05.424Z,7.95
2018-10-06T05:02:33.862Z,10.08
2018-10-06T05:05:02.403Z,7.92
2018-10-06T05:07:30.865Z,10.50
2018-10-06T05:09:59.416Z,11.35
2018-10-06T05:12:27.843Z,9.20
2018-10-06T05:14:56.363Z,8.65
2018-10-06T05:17:24.891Z,9.88
2018-10-06T05:19:53.343Z,7.90
2018-10-06T05:22:21.824Z,8.80
2018-10-06T05:24:50.306Z,9.13
2018-10-06T05:27:18.828Z,8.93
2018-10-06T05:29:47.301Z,8.70
2018-10-06T05:32:15.821Z,8.08
2018-10-06T05:34:44.252Z,8.28
2018-10-06T05:37:12.771Z,12.00
2018-10-06T05:39:41.341Z,10.25
2018-10-06T05:42:09.813Z,8.88
2018-10-06T05:44:38.685Z,9.85
2018-10-06T05:47:07.177Z,7.92
2018-10-06T05:49:36.053Z,9.18
2018-10-06T05:52:04.625Z,8.70
2018-10-06T05:54:34.331Z,9.23
2018-10-06T05:57:02.906Z,7.75
2018-10-06T05:59:31.333Z,9.50
2018-10-06T06:02:00.072Z,8.25
2018-10-06T06:04:28.635Z,9.45
2018-10-06T06:06:57.201Z,8.03
2018-10-06T06:09:25.739Z,9.20
2018-10-06T06:11:54.292Z,9.38
2018-10-06T06:14:22.928Z,11.37
2018-10-06T06:16:51.380Z,10.27
2018-10-06T06:19:19.973Z,14.90
2018-10-06T06:21:48.459Z,10.65
2018-10-06T06:24:16.926Z,9.73
2018-10-06T06:26:45.547Z,13.50
2018-10-06T06:29:14.018Z,11.80
2018-10-06T06:31:43.010Z,10.15
2018-10-06T06:34:11.581Z,9.58
2018-10-06T06:36:40.187Z,9.25
2018-10-06T06:39:09.435Z,12.13
2018-10-06T06:41:38.260Z,35.13
2018-10-06T06:44:07.236Z,20.00
2018-10-06T06:46:35.833Z,13.47
2018-10-06T06:49:04.643Z,12.00
2018-10-06T06:51:33.237Z,9.70
2018-10-06T06:54:01.754Z,10.23
2018-10-06T06:56:30.395Z,10.27
2018-10-06T06:58:58.976Z,14.30
2018-10-06T07:01:27.511Z,11.03
2018-10-06T07:03:56.065Z,12.73
2018-10-06T07:06:24.642Z,13.43
2018-10-06T07:08:53.146Z,15.73
2018-10-06T07:11:21.894Z,13.50
2018-10-06T07:13:50.381Z,16.43
2018-10-06T07:16:19.018Z,19.77
2018-10-06T07:18:47.432Z,20.00
2018-10-06T07:21:15.931Z,13.00
2018-10-06T07:23:44.382Z,12.53
2018-10-06T07:26:12.893Z,18.40
2018-10-06T07:28:41.374Z,20.30
2018-10-06T07:31:09.961Z,12.60
2018-10-06T07:33:38.463Z,15.40
2018-10-06T07:36:07.194Z,19.03
2018-10-06T07:38:35.805Z,16.83
2018-10-06T07:41:04.800Z,15.13
2018-10-06T07:43:33.269Z,17.33
2018-10-06T07:46:02.001Z,14.63
2018-10-06T07:48:30.683Z,21.07
2018-10-06T07:50:59.255Z,21.50
2018-10-06T07:53:27.717Z,17.13
2018-10-06T07:55:56.188Z,17.93
2018-10-06T07:58:24.608Z,21.47
2018-10-06T08:00:53.238Z,23.10
2018-10-06T08:03:21.757Z,18.80
2018-10-06T08:05:50.294Z,18.17
2018-10-06T08:08:18.893Z,22.10
2018-10-06T08:10:47.454Z,18.20
2018-10-06T08:13:15.865Z,34.43
2018-10-06T08:15:44.357Z,20.97
2018-10-06T08:18:12.845Z,21.17
2018-10-06T08:20:41.385Z,25.60
2018-10-06T08:23:09.897Z,22.90
2018-10-06T08:25:38.456Z,24.80
2018-10-06T08:28:06.951Z,27.73
2018-10-06T08:30:36.520Z,25.57
2018-10-06T08:33:05.118Z,27.10
2018-10-06T08:35:33.758Z,25.23
2018-10-06T08:38:02.333Z,21.93
2018-10-06T08:40:31.373Z,33.53
2018-10-06T08:43:00.182Z,22.70
2018-10-06T08:45:28.985Z,30.20
2018-10-06T08:47:57.514Z,27.13
2018-10-06T08:50:26.229Z,24.80
2018-10-06T08:52:54.640Z,25.77
2018-10-06T08:55:23.092Z,26.57
2018-10-06T08:57:51.459Z,27.87
2018-10-06T09:00:19.929Z,26.90
2018-10-06T09:02:48.408Z,28.23
2018-10-06T09:05:16.883Z,27.40
2018-10-06T09:07:45.342Z,25.77
2018-10-06T09:10:13.801Z,21.17
2018-10-06T09:12:42.520Z,25.00
2018-10-06T09:15:11.000Z,21.90
2018-10-06T09:17:39.442Z,25.43
2018-10-06T09:20:08.032Z,25.20
2018-10-06T09:22:36.558Z,26.43
2018-10-06T09:25:05.123Z,22.10
2018-10-06T09:27:33.691Z,24.20
2018-10-06T09:30:02.269Z,27.87
2018-10-06T09:32:30.758Z,21.67
2018-10-06T09:34:59.365Z,22.30
2018-10-06T09:37:27.841Z,22.20
2018-10-06T09:39:56.371Z,22.50
2018-10-06T09:42:24.950Z,24.97
2018-10-06T09:44:53.320Z,20.27
2018-10-06T09:47:21.832Z,23.33
2018-10-06T09:49:50.389Z,23.60
2018-10-06T09:52:18.877Z,20.57
2018-10-06T09:54:47.399Z,21.43
2018-10-06T09:57:15.941Z,21.23
2018-10-06T09:59:44.443Z,19.67
2018-10-06T10:02:18.242Z,20.20
2018-10-06T10:04:46.748Z,19.80
2018-10-06T10:07:15.169Z,22.93
2018-10-06T10:09:43.646Z,22.33
2018-10-06T10:12:12.080Z,19.20
2018-10-06T10:14:40.593Z,15.80
2018-10-06T10:17:09.074Z,15.33
2018-10-06T10:19:37.513Z,15.80
2018-10-06T10:22:06.143Z,15.40
2018-10-06T10:24:35.110Z,16.17
2018-10-06T10:27:10.000Z,17.33
2018-10-06T10:29:38.481Z,21.40
2018-10-06T10:32:06.945Z,14.30
2018-10-06T10:34:35.647Z,15.83
2018-10-06T10:37:04.147Z,16.20
2018-10-06T10:39:32.870Z,18.53
2018-10-06T10:42:01.311Z,22.27
2018-10-06T10:44:29.950Z,16.90
2018-10-06T10:46:58.397Z,19.97
2018-10-06T10:49:26.998Z,19.70
2018-10-06T10:51:55.419Z,16.77
2018-10-06T10:54:23.907Z,17.20
2018-10-06T10:56:52.421Z,14.97
2018-10-06T10:59:20.934Z,16.17
2018-10-06T11:01:49.356Z,15.50
2018-10-06T11:04:18.175Z,15.53
2018-10-06T11:06:46.605Z,12.77
2018-10-06T11:09:15.113Z,14.07
2018-10-06T11:11:43.631Z,13.07
2018-10-06T11:14:12.077Z,12.73
2018-10-06T11:16:40.478Z,14.77
2018-10-06T11:19:08.977Z,14.30
2018-10-06T11:21:37.411Z,16.13
2018-10-06T11:24:05.963Z,14.27
2018-10-06T11:26:34.445Z,13.40
2018-10-06T11:29:03.015Z,14.67
2018-10-06T11:31:31.632Z,14.47
2018-10-06T11:34:00.175Z,12.10
2018-10-06T11:36:28.613Z,17.93
2018-10-06T11:38:57.097Z,12.77
2018-10-06T11:41:25.592Z,11.60
2018-10-06T11:43:54.097Z,13.43
2018-10-06T11:46:22.582Z,21.47
2018-10-06T11:48:51.060Z,11.40
2018-10-06T11:51:19.488Z,15.57
2018-10-06T11:53:48.030Z,11.80
2018-10-06T11:56:16.496Z,14.23
2018-10-06T11:58:45.011Z,11.63
2018-10-06T12:01:13.491Z,12.63
2018-10-06T12:03:42.011Z,12.63
2018-10-06T12:06:10.875Z,12.00
2018-10-06T12:08:39.841Z,11.00
2018-10-06T12:11:08.667Z,12.87
2018-10-06T12:13:37.867Z,11.03
2018-10-06T12:16:06.298Z,12.83
2018-10-06T12:18:34.839Z,9.50
2018-10-06T12:21:03.416Z,13.60
2018-10-06T12:23:31.990Z,10.77
2018-10-06T12:26:00.702Z,10.23
2018-10-06T12:28:29.180Z,10.60
2018-10-06T12:30:57.730Z,13.73
2018-10-06T12:33:26.222Z,13.90
2018-10-06T12:35:54.777Z,11.33
2018-10-06T12:38:23.531Z,13.63
2018-10-06T12:40:52.012Z,12.03
2018-10-06T12:43:20.396Z,11.80
2018-10-06T12:45:48.929Z,14.00
2018-10-06T12:48:17.426Z,15.43
2018-10-06T12:50:45.924Z,12.20
2018-10-06T12:53:14.398Z,13.20
2018-10-06T12:55:42.905Z,11.60
2018-10-06T12:58:11.351Z,10.67
2018-10-06T13:00:39.793Z,10.03
2018-10-06T13:03:08.302Z,10.20
2018-10-06T13:05:36.768Z,8.87
2018-10-06T13:08:05.332Z,8.40
2018-10-06T13:10:34.109Z,9.07
2018-10-06T13:13:02.737Z,13.37
2018-10-06T13:15:31.684Z,8.40
2018-10-06T13:18:00.259Z,9.23
2018-10-06T13:20:29.074Z,9.33
2018-10-06T13:22:57.655Z,8.70
2018-10-06T13:25:26.188Z,8.20
2018-10-06T13:27:54.673Z,9.90
2018-10-06T13:30:23.145Z,8.40
2018-10-06T13:32:51.663Z,9.13
2018-10-06T13:35:20.163Z,11.97
2018-10-06T13:37:48.681Z,9.00
2018-10-06T13:40:17.121Z,11.30
2018-10-06T13:42:45.702Z,17.00
2018-10-06T13:45:14.210Z,9.30
2018-10-06T13:47:42.748Z,8.03
2018-10-06T13:50:11.323Z,12.27
2018-10-06T13:52:39.836Z,8.53
2018-10-06T13:55:08.272Z,8.80
2018-10-06T13:57:36.891Z,15.30
2018-10-06T14:00:05.485Z,8.90
2018-10-06T14:02:34.080Z,7.40
2018-10-06T14:05:03.267Z,7.23
2018-10-06T14:07:32.031Z,8.73
2018-10-06T14:10:00.609Z,9.90
2018-10-06T14:12:29.339Z,6.90
2018-10-06T14:14:58.043Z,7.10
2018-10-06T14:17:26.651Z,6.43
2018-10-06T14:19:55.140Z,7.30
2018-10-06T14:22:23.588Z,6.83
2018-10-06T14:24:52.114Z,6.53
2018-10-06T14:27:20.670Z,6.60
2018-10-06T14:29:49.114Z,8.60
2018-10-06T14:32:18.450Z,9.30
2018-10-06T14:34:46.878Z,9.00
2018-10-06T14:37:15.406Z,8.73
2018-10-06T14:39:43.913Z,6.80
2018-10-06T14:42:12.370Z,7.40
2018-10-06T14:44:40.886Z,6.27
2018-10-06T14:47:09.440Z,9.00
2018-10-06T14:49:37.848Z,6.90
2018-10-06T14:52:06.435Z,6.53
2018-10-06T14:54:34.987Z,6.27
2018-10-06T14:57:03.634Z,7.63
2018-10-06T14:59:32.279Z,5.80
2018-10-06T15:02:01.148Z,8.00
2018-10-06T15:04:29.712Z,6.30
2018-10-06T15:06:58.686Z,7.03
2018-10-06T15:09:27.290Z,8.20
2018-10-06T15:11:55.921Z,7.23
2018-10-06T15:14:24.464Z,7.83
2018-10-06T15:16:52.932Z,7.17
2018-10-06T15:19:21.497Z,8.20
2018-10-06T15:21:49.997Z,6.57
2018-10-06T15:24:18.551Z,7.47
2018-10-06T15:26:47.089Z,11.00
2018-10-06T15:29:15.729Z,10.63
2018-10-06T15:31:44.240Z,8.23
2018-10-06T15:34:12.878Z,7.57
2018-10-06T15:36:41.454Z,8.03
2018-10-06T15:39:10.277Z,8.53
2018-10-06T15:41:39.168Z,8.83
2018-10-06T15:44:07.703Z,9.60
2018-10-06T15:46:36.221Z,7.30
2018-10-06T15:49:05.028Z,7.03
2018-10-06T15:51:33.925Z,7.20
2018-10-06T15:54:02.775Z,7.10
2018-10-06T15:56:31.385Z,8.90
2018-10-06T15:59:00.068Z,7.53
2018-10-06T16:01:28.693Z,9.10
2018-10-06T16:03:57.265Z,9.30
2018-10-06T16:06:26.867Z,11.03
2018-10-06T16:08:55.544Z,7.93
2018-10-06T16:11:23.995Z,9.33
2018-10-06T16:13:52.441Z,9.60
2018-10-06T16:16:20.958Z,9.40
2018-10-06T16:18:49.547Z,8.73
2018-10-06T16:21:18.052Z,8.43
2018-10-06T16:23:46.619Z,9.47
2018-10-06T16:26:15.162Z,8.87
2018-10-06T16:28:43.897Z,8.73
2018-10-06T16:31:12.353Z,10.20
2018-10-06T16:33:42.970Z,10.60
2018-10-06T16:36:11.818Z,9.27
2018-10-06T16:38:40.351Z,9.17
2018-10-06T16:41:09.306Z,9.07
2018-10-06T16:43:37.902Z,12.10
2018-10-06T16:46:06.736Z,10.27
2018-10-06T16:48:35.521Z,10.50
2018-10-06T16:51:04.359Z,9.00
2018-10-06T16:53:32.866Z,11.60
2018-10-06T16:56:01.485Z,12.00
2018-10-06T16:58:30.113Z,14.40
2018-10-06T17:00:58.857Z,13.30
2018-10-06T17:03:32.932Z,15.77
2018-10-06T17:06:01.915Z,11.10
2018-10-06T17:08:34.293Z,12.33
2018-10-06T17:11:03.439Z,12.43
2018-10-06T17:13:32.769Z,11.37
2018-10-06T17:16:01.808Z,12.17
2018-10-06T17:18:30.675Z,10.20
2018-10-06T17:20:59.793Z,13.10
2018-10-06T17:23:28.241Z,10.50
2018-10-06T17:25:56.773Z,14.30
2018-10-06T17:28:25.258Z,12.40
2018-10-06T17:30:53.726Z,11.90
2018-10-06T17:33:22.156Z,12.03
2018-10-06T17:35:57.411Z,11.83
2018-10-06T17:38:25.963Z,9.80
2018-10-06T17:40:54.511Z,10.63
2018-10-06T17:43:23.289Z,9.70
2018-10-06T17:45:51.876Z,11.63
2018-10-06T17:48:20.361Z,14.87
2018-10-06T17:50:48.955Z,12.10
2018-10-06T17:53:17.381Z,12.13
2018-10-06T17:55:51.028Z,18.20
2018-10-06T17:58:19.479Z,10.17
2018-10-06T18:00:48.140Z,10.33
2018-10-06T18:03:16.650Z,9.77
2018-10-06T18:05:45.205Z,11.63
2018-10-06T18:08:13.692Z,10.57
2018-10-06T18:10:42.238Z,9.53
2018-10-06T18:13:10.813Z,9.20
2018-10-06T18:15:39.288Z,9.90
2018-10-06T18:18:08.165Z,8.87
2018-10-06T18:20:36.770Z,14.37
2018-10-06T18:23:05.233Z,11.73
2018-10-06T18:25:33.730Z,9.00
2018-10-06T18:28:02.262Z,17.00
2018-10-06T18:30:30.914Z,9.87
2018-10-06T18:32:59.504Z,8.73
2018-10-06T18:35:28.201Z,9.03
2018-10-06T18:37:56.646Z,8.50
2018-10-06T18:40:25.127Z,8.97
2018-10-06T18:42:53.597Z,8.57
2018-10-06T18:45:22.053Z,9.70
2018-10-06T18:47:50.559Z,8.20
2018-10-06T18:50:19.033Z,9.80
2018-10-06T18:52:47.464Z,9.07
2018-10-06T18:55:16.039Z,10.70
2018-10-06T18:57:44.536Z,7.97
2018-10-06T19:00:13.042Z,8.97
2018-10-06T19:02:41.502Z,9.13
2018-10-06T19:05:10.144Z,10.03
2018-10-06T19:07:38.621Z,9.60
2018-10-06T19:10:07.450Z,9.23
2018-10-06T19:12:35.843Z,12.20
2018-10-06T19:15:04.637Z,9.33
2018-10-06T19:17:33.252Z,10.57
2018-10-06T19:20:02.001Z,11.00
2018-10-06T19:22:30.700Z,11.43
2018-10-06T19:24:59.298Z,11.63
2018-10-06T19:27:28.061Z,10.47
2018-10-06T19:29:56.899Z,12.00
2018-10-06T19:32:25.389Z,11.70
2018-10-06T19:34:53.853Z,12.40
2018-10-06T19:37:22.293Z,9.00
2018-10-06T19:39:51.315Z,9.03
2018-10-06T19:42:19.809Z,11.60
2018-10-06T19:44:48.265Z,10.03
2018-10-06T19:47:16.782Z,9.00
2018-10-06T19:49:45.266Z,9.50
2018-10-06T19:52:13.730Z,8.80
2018-10-06T19:54:42.189Z,9.33
2018-10-06T19:57:10.774Z,11.73
2018-10-06T19:59:39.201Z,7.40
2018-10-06T20:02:08.090Z,8.87
2018-10-06T20:04:36.734Z,7.80
2018-10-06T20:07:05.960Z,8.20
2018-10-06T20:09:34.824Z,8.80
2018-10-06T20:12:03.439Z,12.33
2018-10-06T20:14:32.373Z,10.40
2018-10-06T20:17:01.251Z,9.70
2018-10-06T20:19:29.808Z,8.63
2018-10-06T20:21:58.368Z,8.17
2018-10-06T20:24:26.753Z,7.87
2018-10-06T20:26:55.392Z,10.27
2018-10-06T20:29:23.796Z,8.40
2018-10-06T20:31:52.244Z,12.07
2018-10-06T20:34:20.724Z,11.17
2018-10-06T20:36:49.169Z,9.33
2018-10-06T20:39:17.669Z,8.23
2018-10-06T20:41:46.128Z,8.27
2018-10-06T20:44:14.539Z,13.33
2018-10-06T20:46:43.050Z,9.80
2018-10-06T20:49:11.533Z,10.03
2018-10-06T20:51:40.053Z,10.00
2018-10-06T20:54:08.781Z,8.73
2018-10-06T20:56:37.596Z,10.43
2018-10-06T20:59:06.351Z,10.07
2018-10-06T21:01:36.659Z,10.00
2018-10-06T21:04:05.218Z,10.00
2018-10-06T21:06:33.975Z,10.27
2018-10-06T21:09:06.442Z,10.43
2018-10-06T21:11:35.056Z,10.33
2018-10-06T21:14:03.915Z,8.93
2018-10-06T21:16:32.771Z,10.63
2018-10-06T21:19:01.666Z,11.37
2018-10-06T21:21:30.524Z,10.50
2018-10-06T21:23:59.100Z,13.43
2018-10-06T21:26:27.594Z,10.57
2018-10-06T21:28:56.113Z,9.90
2018-10-06T21:31:24.890Z,12.57
2018-10-06T21:33:53.494Z,8.97
2018-10-06T21:36:22.033Z,8.67
2018-10-06T21:38:50.584Z,8.43
2018-10-06T21:41:19.015Z,8.40
2018-10-06T21:43:47.529Z,37.07
2018-10-06T21:46:16.061Z,11.30
2018-10-06T21:48:44.572Z,8.90
2018-10-06T21:51:13.087Z,8.33
2018-10-06T21:53:41.668Z,9.30
2018-10-06T21:56:10.146Z,13.30
2018-10-06T21:58:38.683Z,10.03
2018-10-06T22:01:10.009Z,12.17
2018-10-06T22:03:39.321Z,8.63
2018-10-06T22:06:07.868Z,8.77
2018-10-06T22:08:36.411Z,7.00
2018-10-06T22:11:05.089Z,11.53
2018-10-06T22:13:33.611Z,7.50
2018-10-06T22:16:02.226Z,7.40
2018-10-06T22:18:30.784Z,7.40
2018-10-06T22:20:59.413Z,8.50
2018-10-06T22:23:28.080Z,10.20
2018-10-06T22:25:56.612Z,7.73
2018-10-06T22:28:25.111Z,6.73
2018-10-06T22:30:53.573Z,7.13
2018-10-06T22:33:22.090Z,6.73
2018-10-06T22:35:50.504Z,7.47
2018-10-06T22:38:19.032Z,7.40
2018-10-06T22:40:47.492Z,9.40
2018-10-06T22:43:15.952Z,7.43
2018-10-06T22:45:44.688Z,8.27
2018-10-06T22:48:13.205Z,9.33
2018-10-06T22:50:42.073Z,6.97
2018-10-06T22:53:10.540Z,9.33
2018-10-06T22:55:39.003Z,10.53
2018-10-06T22:58:07.408Z,7.30
2018-10-06T23:00:35.854Z,10.53
2018-10-06T23:03:04.510Z,8.07
2018-10-06T23:05:33.045Z,7.17
2018-10-06T23:08:01.569Z,10.43
2018-10-06T23:10:30.157Z,6.73
2018-10-06T23:12:58.722Z,6.77
2018-10-06T23:15:27.203Z,6.63
2018-10-06T23:17:55.687Z,6.97
2018-10-06T23:20:24.117Z,7.23
2018-10-06T23:22:52.601Z,7.20
2018-10-06T23:25:21.087Z,6.73
2018-10-06T23:27:49.647Z,7.37
2018-10-06T23:30:18.101Z,6.67
2018-10-06T23:32:46.639Z,6.50
2018-10-06T23:35:15.159Z,6.20
2018-10-06T23:37:43.693Z,6.00
2018-10-06T23:40:12.159Z,12.00
2018-10-06T23:42:40.646Z,7.87
2018-10-06T23:45:09.149Z,7.10
2018-10-06T23:47:37.684Z,6.67
2018-10-06T23:50:06.296Z,6.30
2018-10-06T23:52:34.872Z,6.23
2018-10-06T23:55:03.477Z,12.00
2018-10-06T23:57:32.049Z,5.40
